Time;durP1;ratioP1;P1;durP2;ratioP2;P2;SDS_P1;SDS_P2;PMS_P1;PMS_P2;Temp;Humidity;BMP_temperature;BMP_pressure;BME280_temperature;BME280_humidity;BME280_pressure;Samples;Min_cycle;Max_cycle;Signal;HPM_P1;HPM_P2
2023/08/05 00:01:21;;;;;;;3.67;2.50;;;;;;;15.22;100.00;96624.56;5052523;28;20207;-63
2023/08/05 00:03:48;;;;;;;2.90;2.43;;;;;;;15.13;100.00;96610.41;5053155;28;20212;-62
2023/08/05 00:06:16;;;;;;;3.00;2.60;;;;;;;15.09;100.00;96613.63;5052997;28;20582;-63
2023/08/05 00:08:43;;;;;;;2.93;2.27;;;;;;;15.07;100.00;96610.28;5052949;28;20535;-63
2023/08/05 00:11:10;;;;;;;3.45;2.45;;;;;;;15.01;100.00;96597.66;5052620;28;20203;-62
2023/08/05 00:13:36;;;;;;;2.70;2.50;;;;;;;15.01;100.00;96595.81;5052512;28;20207;-61
2023/08/05 00:16:03;;;;;;;2.88;2.60;;;;;;;14.98;100.00;96598.00;5052299;28;20206;-63
2023/08/05 00:18:29;;;;;;;2.60;2.40;;;;;;;14.97;100.00;96589.19;5051710;28;20235;-62
2023/08/05 00:20:56;;;;;;;3.93;2.90;;;;;;;14.90;100.00;96593.53;5052197;28;20211;-63
2023/08/05 00:23:24;;;;;;;2.60;2.40;;;;;;;14.87;100.00;96594.72;5052700;28;20207;-63
2023/08/05 00:25:50;;;;;;;4.20;2.60;;;;;;;14.84;100.00;96583.56;5052578;28;20238;-62
2023/08/05 00:28:17;;;;;;;2.70;2.50;;;;;;;14.81;100.00;96584.72;5052420;28;20204;-62
2023/08/05 00:30:43;;;;;;;2.30;2.10;;;;;;;14.82;100.00;96581.06;5053224;28;20293;-62
2023/08/05 00:33:10;;;;;;;3.13;2.43;;;;;;;14.79;100.00;96575.25;5052987;28;20203;-63
2023/08/05 00:35:36;;;;;;;2.67;2.50;;;;;;;14.75;100.00;96569.44;5053677;28;20203;-62
2023/08/05 00:38:03;;;;;;;2.40;2.30;;;;;;;14.76;100.00;96562.28;5053440;28;20223;-63
2023/08/05 00:40:30;;;;;;;3.00;2.53;;;;;;;14.76;100.00;96555.13;5053041;28;20211;-62
2023/08/05 00:42:57;;;;;;;2.60;2.50;;;;;;;14.77;100.00;96545.31;5052310;28;20264;-61
2023/08/05 00:45:23;;;;;;;2.70;2.50;;;;;;;14.77;100.00;96551.44;5052240;28;21438;-62
2023/08/05 00:47:50;;;;;;;2.57;2.43;;;;;;;14.76;100.00;96555.13;5053441;28;20202;-64
2023/08/05 00:50:16;;;;;;;3.17;2.60;;;;;;;14.74;100.00;96556.28;5052807;28;20234;-62
2023/08/05 00:52:43;;;;;;;3.07;2.47;;;;;;;14.71;100.00;96552.13;5052103;28;20644;-62
2023/08/05 00:55:10;;;;;;;2.23;2.13;;;;;;;14.76;100.00;96560.47;5055358;28;20214;-62
2023/08/05 00:57:38;;;;;;;2.90;2.63;;;;;;;14.74;100.00;96558.94;5053000;28;20667;-64
2023/08/05 01:00:06;;;;;;;3.23;2.80;;;;;;;14.80;100.00;96560.94;5054849;28;20223;-62
2023/08/05 01:02:33;;;;;;;3.10;2.72;;;;;;;14.78;100.00;96562.94;5051563;28;20214;-62
2023/08/05 01:04:59;;;;;;;2.60;2.40;;;;;;;14.84;100.00;96565.72;5051578;28;20219;-63
2023/08/05 01:07:26;;;;;;;2.77;2.57;;;;;;;14.78;100.00;96562.94;5051858;28;20200;-62
2023/08/05 01:09:53;;;;;;;3.03;2.80;;;;;;;14.82;100.00;96570.41;5050713;28;20226;-62
2023/08/05 01:12:20;;;;;;;5.73;2.70;;;;;;;14.84;100.00;96568.41;5051318;28;20210;-62
2023/08/05 01:14:47;;;;;;;3.87;2.77;;;;;;;14.88;100.00;96572.38;5051434;28;20244;-64
2023/08/05 01:17:14;;;;;;;4.80;2.85;;;;;;;14.89;100.00;96570.56;5050948;28;20241;-63
2023/08/05 01:19:42;;;;;;;3.03;2.83;;;;;;;14.95;100.00;96570.69;5051616;28;20536;-62
2023/08/05 01:22:14;;;;;;;3.83;3.40;;;;;;;14.97;100.00;96562.56;5050637;28;20206;-63
2023/08/05 01:24:46;;;;;;;2.90;2.70;;;;;;;15.02;100.00;96559.38;5050886;28;20195;-62
2023/08/05 01:27:14;;;;;;;3.27;2.97;;;;;;;15.03;100.00;96561.84;5050060;28;20234;-62
2023/08/05 01:29:40;;;;;;;3.60;3.10;;;;;;;15.02;100.00;96557.53;5051294;28;20229;-61
2023/08/05 01:32:07;;;;;;;6.63;3.03;;;;;;;14.99;100.00;96565.03;5050619;28;20199;-63
2023/08/05 01:34:34;;;;;;;3.20;2.88;;;;;;;15.05;100.00;96567.84;5050795;28;20853;-62
2023/08/05 01:37:00;;;;;;;3.60;3.20;;;;;;;15.11;100.00;96571.66;5050173;28;20207;-62
2023/08/05 01:39:27;;;;;;;4.45;3.70;;;;;;;15.05;100.00;96564.34;5051029;28;20203;-62
2023/08/05 01:41:53;;;;;;;4.80;2.97;;;;;;;15.12;100.00;96560.00;5050479;28;20207;-62
2023/08/05 01:44:21;;;;;;;3.60;3.30;;;;;;;15.15;100.00;96559.66;5051158;28;20211;-62
2023/08/05 01:46:47;;;;;;;3.50;3.20;;;;;;;15.11;100.00;96547.69;5051130;28;20229;-63
2023/08/05 01:49:14;;;;;;;3.60;3.30;;;;;;;15.04;100.00;96546.72;5051154;28;20203;-62
2023/08/05 01:51:40;;;;;;;3.50;3.30;;;;;;;15.05;100.00;96545.72;5050859;28;20317;-62
2023/08/05 01:54:06;;;;;;;4.00;3.67;;;;;;;15.04;100.00;96546.72;5051005;28;20207;-62
2023/08/05 01:56:33;;;;;;;4.55;3.65;;;;;;;15.02;100.00;96546.06;5050099;28;20230;-62
2023/08/05 01:58:59;;;;;;;3.57;3.37;;;;;;;15.04;100.00;96550.19;5050639;28;20702;-63
2023/08/05 02:01:42;;;;;;;3.72;3.40;;;;;;;15.03;100.00;96553.03;5050402;28;20264;-62
2023/08/05 02:04:09;;;;;;;3.87;3.53;;;;;;;15.02;100.00;96554.06;5050904;28;20198;-62
2023/08/05 02:06:35;;;;;;;3.53;3.23;;;;;;;15.04;100.00;96552.03;5050476;28;20221;-62
2023/08/05 02:09:02;;;;;;;4.43;3.80;;;;;;;15.03;100.00;96545.88;5050670;28;20202;-62
2023/08/05 02:11:28;;;;;;;4.13;3.80;;;;;;;15.06;100.00;96539.34;5050511;28;20211;-63
2023/08/05 02:13:55;;;;;;;4.47;4.07;;;;;;;15.04;100.00;96542.22;5050721;28;20229;-63
2023/08/05 02:16:21;;;;;;;4.40;4.10;;;;;;;15.07;100.00;96541.88;5050875;28;20265;-63
2023/08/05 02:18:50;;;;;;;4.20;3.87;;;;;;;15.09;100.00;96525.72;5050736;28;20237;-62
2023/08/05 02:21:16;;;;;;;3.70;3.50;;;;;;;15.07;100.00;96525.06;5050665;28;21374;-64
2023/08/05 02:23:42;;;;;;;4.53;4.13;;;;;;;15.12;100.00;96520.03;5050007;28;20237;-62
2023/08/05 02:26:09;;;;;;;4.60;4.20;;;;;;;15.11;100.00;96513.06;5050360;28;20246;-63
2023/08/05 02:28:36;;;;;;;4.20;3.80;;;;;;;15.09;100.00;96523.06;5050127;28;20301;-63
2023/08/05 02:31:02;;;;;;;3.73;3.40;;;;;;;15.12;100.00;96522.72;5050780;28;20567;-62
2023/08/05 02:33:29;;;;;;;5.80;3.93;;;;;;;15.10;100.00;96514.03;5050515;28;20210;-63
2023/08/05 02:35:58;;;;;;;4.90;3.90;;;;;;;15.11;100.00;96513.06;5050861;28;20552;-62
2023/08/05 02:38:24;;;;;;;4.93;4.25;;;;;;;15.10;100.00;96508.72;5050577;28;20227;-65
2023/08/05 02:40:51;;;;;;;4.40;4.00;;;;;;;15.16;100.00;96510.72;5052523;28;20214;-62
2023/08/05 02:43:17;;;;;;;4.40;4.10;;;;;;;15.15;100.00;96517.03;5054280;28;20210;-63
2023/08/05 02:45:44;;;;;;;5.60;4.40;;;;;;;15.14;100.00;96521.53;5054606;28;20196;-63
2023/08/05 02:48:10;;;;;;;5.32;4.63;;;;;;;15.13;100.00;96517.19;5054458;28;20203;-63
2023/08/05 02:50:37;;;;;;;5.10;4.60;;;;;;;15.18;100.00;96517.50;5054210;28;20260;-62
2023/08/05 02:53:04;;;;;;;5.47;4.83;;;;;;;15.14;100.00;96521.53;5054145;28;20207;-63
2023/08/05 02:55:31;;;;;;;4.97;4.20;;;;;;;15.18;100.00;96524.66;5054160;28;20211;-62
2023/08/05 02:57:57;;;;;;;4.90;4.50;;;;;;;15.19;100.00;96529.00;5053859;28;20237;-62
2023/08/05 03:00:24;;;;;;;5.40;4.60;;;;;;;15.18;100.00;96522.84;5054352;28;20210;-63
2023/08/05 03:02:51;;;;;;;4.60;4.30;;;;;;;15.17;100.00;96525.66;5053476;28;20695;-63
2023/08/05 03:05:17;;;;;;;7.22;4.72;;;;;;;15.16;100.00;96524.03;5054033;28;20203;-62
2023/08/05 03:07:44;;;;;;;5.03;4.30;;;;;;;15.16;100.00;96526.69;5053726;28;20199;-64
2023/08/05 03:10:12;;;;;;;6.73;4.47;;;;;;;15.16;100.00;96524.03;5053261;28;20207;-62
2023/08/05 03:12:39;;;;;;;4.47;4.18;;;;;;;15.20;100.00;96525.31;5052130;28;20215;-62
2023/08/05 03:15:06;;;;;;;4.57;4.27;;;;;;;15.17;100.00;96541.66;5053914;28;20226;-63
2023/08/05 03:17:33;;;;;;;5.67;4.93;;;;;;;15.19;100.00;96539.66;5053241;28;20290;-62
2023/08/05 03:20:04;;;;;;;5.63;4.60;;;;;;;15.17;100.00;96541.66;5053810;28;20218;-64
2023/08/05 03:22:30;;;;;;;4.90;4.50;;;;;;;15.15;100.00;96538.34;5053824;28;20206;-62
2023/08/05 03:24:57;;;;;;;4.67;4.23;;;;;;;15.20;100.00;96549.28;5053318;28;20199;-62
2023/08/05 03:27:25;;;;;;;4.83;4.43;;;;;;;15.21;100.00;96545.63;5052253;28;20609;-63
2023/08/05 03:29:51;;;;;;;5.40;4.43;;;;;;;15.24;100.00;96553.25;5053085;28;20559;-63
2023/08/05 03:32:18;;;;;;;5.03;4.63;;;;;;;15.23;100.00;96562.28;5053117;28;20202;-63
2023/08/05 03:34:44;;;;;;;5.05;4.65;;;;;;;15.25;100.00;96555.78;5053450;28;20269;-63
2023/08/05 03:37:11;;;;;;;5.60;5.10;;;;;;;15.16;100.00;96556.00;5052790;28;20207;-62
2023/08/05 03:39:37;;;;;;;6.60;4.63;;;;;;;15.20;100.00;96554.63;5053042;28;20576;-62
2023/08/05 03:42:03;;;;;;;5.10;4.57;;;;;;;15.19;100.00;96561.81;5052465;28;20207;-63
2023/08/05 03:44:31;;;;;;;5.50;5.10;;;;;;;15.20;100.00;96559.94;5053179;28;20211;-62
2023/08/05 03:46:58;;;;;;;5.47;5.07;;;;;;;15.19;100.00;96560.97;5052862;28;20234;-63
2023/08/05 03:49:24;;;;;;;5.27;4.77;;;;;;;15.22;100.00;96555.28;5052849;28;20203;-63
2023/08/05 03:51:50;;;;;;;5.07;4.67;;;;;;;15.24;100.00;96550.59;5051806;28;20592;-62
2023/08/05 03:54:17;;;;;;;5.28;4.88;;;;;;;15.22;100.00;96550.78;5052645;28;20662;-63
2023/08/05 03:56:43;;;;;;;5.68;4.90;;;;;;;15.23;100.00;96548.97;5052052;28;20212;-62
2023/08/05 03:59:10;;;;;;;5.70;4.80;;;;;;;15.26;100.00;96562.75;5052898;28;20227;-63
2023/08/05 04:01:38;;;;;;;5.30;4.90;;;;;;;15.24;100.00;96558.59;5052618;28;20628;-63
2023/08/05 04:04:05;;;;;;;5.43;4.33;;;;;;;15.29;100.00;96556.25;5053185;28;20261;-63
2023/08/05 04:06:31;;;;;;;6.40;5.03;;;;;;;15.29;100.00;96554.41;5052821;28;20671;-62
2023/08/05 04:08:58;;;;;;;5.07;4.57;;;;;;;15.35;100.00;96566.19;5053041;28;20215;-63
2023/08/05 04:11:24;;;;;;;5.07;4.67;;;;;;;15.31;100.00;96559.56;5052645;28;20210;-63
2023/08/05 04:13:52;;;;;;;5.18;4.60;;;;;;;15.29;100.00;96556.25;5051992;28;20635;-63
2023/08/05 04:16:19;;;;;;;5.40;4.90;;;;;;;15.32;100.00;96555.91;5052586;28;20215;-62
2023/08/05 04:18:48;;;;;;;5.20;4.80;;;;;;;15.31;100.00;96559.56;5052582;28;20234;-63
2023/08/05 04:21:15;;;;;;;5.77;5.23;;;;;;;15.28;100.00;96547.41;5052716;28;20211;-62
2023/08/05 04:23:41;;;;;;;5.33;4.77;;;;;;;15.30;100.00;96544.59;5052404;28;20207;-62
2023/08/05 04:26:08;;;;;;;5.30;4.90;;;;;;;15.30;100.00;96547.25;5052591;28;20254;-62
2023/08/05 04:28:34;;;;;;;5.17;4.67;;;;;;;15.27;100.00;96542.25;5052151;28;20195;-62
2023/08/05 04:31:01;;;;;;;4.82;4.43;;;;;;;15.29;100.00;96545.59;5052469;28;20219;-62
2023/08/05 04:33:27;;;;;;;5.65;5.15;;;;;;;15.30;100.00;96547.25;5051747;28;20199;-64
2023/08/05 04:35:57;;;;;;;5.45;4.55;;;;;;;15.32;100.00;96553.22;5052169;28;20226;-63
2023/08/05 04:38:23;;;;;;;5.65;5.20;;;;;;;15.28;100.00;96558.09;5051839;28;20214;-63
2023/08/05 04:40:50;;;;;;;5.38;4.95;;;;;;;15.32;100.00;96551.41;5051820;28;20628;-63
2023/08/05 04:43:17;;;;;;;5.25;4.75;;;;;;;15.35;100.00;96560.88;5050942;28;20215;-62
2023/08/05 04:45:44;;;;;;;6.35;4.47;;;;;;;15.37;100.00;96569.53;5052221;28;20302;-63
2023/08/05 04:48:10;;;;;;;5.22;4.68;;;;;;;15.36;100.00;96567.88;5051040;28;20210;-62
2023/08/05 04:50:38;;;;;;;4.60;4.25;;;;;;;15.41;100.00;96568.16;5051966;28;20199;-62
2023/08/05 04:53:06;;;;;;;5.00;4.63;;;;;;;15.45;100.00;96569.47;5051520;28;20695;-62
2023/08/05 04:55:32;;;;;;;5.85;5.22;;;;;;;15.48;100.00;96577.13;5052001;28;20307;-62
2023/08/05 04:57:59;;;;;;;5.22;4.68;;;;;;;15.39;100.00;96578.19;5050942;28;20210;-63
2023/08/05 05:00:27;;;;;;;4.90;4.40;;;;;;;15.48;100.00;96574.44;5052088;28;20211;-62
2023/08/05 05:02:54;;;;;;;5.85;4.82;;;;;;;15.48;100.00;96582.44;5050842;28;20226;-63
2023/08/05 05:05:20;;;;;;;5.50;5.00;;;;;;;15.47;100.00;96582.63;5051732;28;20207;-62
2023/08/05 05:07:47;;;;;;;5.20;4.80;;;;;;;15.41;100.00;96581.47;5051451;28;20211;-63
2023/08/05 05:10:15;;;;;;;6.28;4.78;;;;;;;15.35;100.00;96579.53;5051310;28;20203;-63
2023/08/05 05:12:41;;;;;;;5.40;4.88;;;;;;;15.41;100.00;96581.47;5051077;28;20203;-63
2023/08/05 05:15:08;;;;;;;4.60;4.30;;;;;;;15.46;100.00;96579.13;5051348;28;20555;-63
2023/08/05 05:17:35;;;;;;;4.85;4.45;;;;;;;15.44;100.00;96579.31;5051291;28;20214;-62
2023/08/05 05:20:02;;;;;;;5.20;4.80;;;;;;;15.37;100.00;96577.53;5051215;28;20231;-63
2023/08/05 05:22:28;;;;;;;6.05;5.13;;;;;;;15.38;100.00;96582.66;5051184;28;20215;-63
2023/08/05 05:24:55;;;;;;;4.50;4.20;;;;;;;15.42;100.00;96577.81;5051095;28;20644;-62
2023/08/05 05:27:22;;;;;;;5.07;4.45;;;;;;;15.44;100.00;96592.63;5050666;28;20230;-62
2023/08/05 05:29:49;;;;;;;5.03;4.63;;;;;;;15.51;100.00;96584.81;5051517;28;20215;-63
2023/08/05 05:32:15;;;;;;;5.10;4.70;;;;;;;15.47;100.00;96586.13;5051201;28;20621;-63
2023/08/05 05:34:42;;;;;;;5.55;4.57;;;;;;;15.49;100.00;96593.97;5053405;28;20650;-62
2023/08/05 05:37:08;;;;;;;6.28;4.93;;;;;;;15.50;100.00;96599.16;5051458;28;20211;-63
2023/08/05 05:39:35;;;;;;;4.80;4.40;;;;;;;15.44;100.00;96597.94;5051388;28;20554;-62
2023/08/05 05:42:01;;;;;;;4.68;4.28;;;;;;;15.50;100.00;96595.66;5050384;28;20840;-61
2023/08/05 05:44:29;;;;;;;5.20;4.60;;;;;;;15.45;100.00;96593.47;5051842;28;20207;-63
2023/08/05 05:46:55;;;;;;;4.60;4.30;;;;;;;15.49;100.00;96600.13;5051053;28;20207;-62
2023/08/05 05:49:22;;;;;;;5.10;4.70;;;;;;;15.51;100.00;96598.16;5050939;28;20587;-62
2023/08/05 05:51:48;;;;;;;4.78;4.38;;;;;;;15.52;100.00;96607.78;5050566;28;20207;-64
2023/08/05 05:54:15;;;;;;;5.00;4.53;;;;;;;15.52;100.00;96606.97;5050408;28;20204;-62
2023/08/05 05:56:43;;;;;;;5.00;4.60;;;;;;;15.57;100.00;96597.44;5050636;28;20206;-62
2023/08/05 05:59:10;;;;;;;5.18;4.72;;;;;;;15.55;100.00;96602.13;5050733;28;20223;-63
2023/08/05 06:01:37;;;;;;;5.25;4.85;;;;;;;15.57;100.00;96608.09;5050369;28;20210;-63
2023/08/05 06:04:08;;;;;;;4.93;4.60;;;;;;;15.52;100.00;96610.44;5051258;28;20213;-63
2023/08/05 06:06:34;;;;;;;6.38;4.30;;;;;;;15.49;100.00;96608.13;5050769;28;20195;-63
2023/08/05 06:09:02;;;;;;;4.70;4.32;;;;;;;15.52;100.00;96615.78;5050592;28;20211;-63
2023/08/05 06:11:29;;;;;;;4.90;4.40;;;;;;;15.53;100.00;96616.63;5050554;28;20207;-61
2023/08/05 06:13:55;;;;;;;5.80;4.63;;;;;;;15.55;100.00;96615.47;5050453;28;20214;-61
2023/08/05 06:16:22;;;;;;;4.40;4.10;;;;;;;15.61;100.00;96620.09;5053614;28;20210;-63
2023/08/05 06:18:49;;;;;;;5.32;4.82;;;;;;;15.66;100.00;96603.56;5054604;28;20280;-63
2023/08/05 06:21:16;;;;;;;4.25;3.88;;;;;;;15.68;100.00;96614.88;5054586;28;20286;-63
2023/08/05 06:23:42;;;;;;;5.32;4.32;;;;;;;15.74;100.00;96608.84;5053929;28;20210;-63
2023/08/05 06:26:10;;;;;;;5.18;4.68;;;;;;;15.79;100.00;96614.47;5054615;28;20550;-63
2023/08/05 06:28:36;;;;;;;4.65;4.30;;;;;;;15.80;100.00;96614.28;5054368;28;20195;-62
2023/08/05 06:31:02;;;;;;;5.10;4.70;;;;;;;15.85;100.00;96616.44;5054509;28;20524;-63
2023/08/05 06:33:29;;;;;;;4.63;4.10;;;;;;;15.88;100.00;96621.41;5054128;28;20770;-63
2023/08/05 06:35:57;;;;;;;4.93;4.53;;;;;;;15.93;100.00;96619.06;5054483;28;20195;-63
2023/08/05 06:38:24;;;;;;;4.32;4.03;;;;;;;15.97;100.00;96614.19;5054042;28;20457;-64
2023/08/05 06:40:52;;;;;;;4.28;3.97;;;;;;;16.03;100.00;96613.47;5054591;28;20237;-62
2023/08/05 06:43:18;;;;;;;4.75;4.30;;;;;;;16.10;100.00;96620.59;5053261;28;20210;-62
2023/08/05 06:45:46;;;;;;;4.80;4.43;;;;;;;16.20;100.00;96617.69;5054619;28;20333;-62
2023/08/05 06:48:13;;;;;;;4.93;4.30;;;;;;;16.30;100.00;96605.75;5054084;28;20207;-63
2023/08/05 06:50:39;;;;;;;7.47;4.22;;;;;;;16.35;100.00;96599.91;5053793;28;20640;-63
2023/08/05 06:53:07;;;;;;;4.50;4.10;;;;;;;16.40;100.00;96602.88;5054111;28;20195;-62
2023/08/05 06:55:33;;;;;;;4.28;3.88;;;;;;;16.53;100.00;96595.06;5053815;28;20211;-62
2023/08/05 06:58:00;;;;;;;4.43;4.03;;;;;;;16.51;100.00;96597.06;5053688;28;20195;-63
2023/08/05 07:00:27;;;;;;;4.45;4.05;;;;;;;16.46;100.00;96588.78;5053930;28;20223;-63
2023/08/05 07:02:54;;;;;;;5.03;4.28;;;;;;;16.54;100.00;96590.56;5053405;28;20644;-62
2023/08/05 07:05:20;;;;;;;4.40;4.10;;;;;;;16.56;100.00;96589.41;5054325;28;20203;-62
2023/08/05 07:07:47;;;;;;;4.60;3.80;;;;;;;16.60;100.00;96582.69;5053843;28;20211;-63
2023/08/05 07:10:14;;;;;;;3.80;3.47;;;;;;;16.66;100.00;96584.63;5053852;28;20192;-62
2023/08/05 07:12:41;;;;;;;4.07;3.78;;;;;;;16.76;100.00;96590.53;5054035;28;20282;-63
2023/08/05 07:15:08;;;;;;;3.80;3.50;;;;;;;17.00;100.00;96586.78;5053832;28;20211;-62
2023/08/05 07:17:35;;;;;;;4.30;3.80;;;;;;;17.17;100.00;96588.25;5053392;28;20311;-61
2023/08/05 07:20:04;;;;;;;4.15;3.80;;;;;;;17.34;100.00;96583.53;5053259;28;20340;-60
2023/08/05 07:22:30;;;;;;;4.13;3.72;;;;;;;17.67;100.00;96571.41;5053629;28;20207;-66
2023/08/05 07:24:57;;;;;;;4.35;3.58;;;;;;;18.14;100.00;96567.38;5053944;28;20206;-60
2023/08/05 07:27:24;;;;;;;3.97;3.67;;;;;;;18.48;100.00;96567.47;5052452;28;20227;-62
2023/08/05 07:29:51;;;;;;;5.25;3.70;;;;;;;18.40;100.00;96575.63;5053443;28;20203;-61
2023/08/05 07:32:17;;;;;;;6.68;3.53;;;;;;;18.66;100.00;96580.41;5052535;28;20620;-61
2023/08/05 07:34:47;;;;;;;3.83;3.45;;;;;;;18.67;100.00;96580.19;5053252;28;20211;-64
2023/08/05 07:37:14;;;;;;;4.45;3.30;;;;;;;18.60;100.00;96575.84;5053463;28;20221;-64
2023/08/05 07:39:47;;;;;;;4.70;3.67;;;;;;;18.50;99.41;96576.13;5052661;28;20215;-63
2023/08/05 07:42:15;;;;;;;6.25;3.50;;;;;;;18.47;100.00;96575.69;5052960;28;20223;-63
2023/08/05 07:44:44;;;;;;;3.75;3.42;;;;;;;18.43;100.00;96567.19;5052466;28;20207;-63
2023/08/05 07:47:11;;;;;;;3.58;3.38;;;;;;;18.55;100.00;96562.19;5053223;28;20222;-64
2023/08/05 07:49:41;;;;;;;5.60;3.55;;;;;;;19.00;99.83;96568.88;5060658;28;20286;-63
2023/08/05 07:52:12;;;;;;;3.55;3.25;;;;;;;19.45;99.97;96565.63;5055597;28;20211;-63
2023/08/05 07:54:39;;;;;;;4.60;3.78;;;;;;;19.86;99.26;96566.41;5053503;28;20195;-63
2023/08/05 07:57:06;;;;;;;3.50;3.30;;;;;;;19.76;94.50;96565.13;5036801;28;20207;-63
2023/08/05 07:59:34;;;;;;;3.45;3.22;;;;;;;19.79;95.01;96568.25;5055009;28;20242;-64
2023/08/05 08:02:08;;;;;;;3.22;3.03;;;;;;;19.61;96.62;96570.66;5055437;28;20199;-63
2023/08/05 08:04:35;;;;;;;3.58;3.28;;;;;;;19.30;94.84;96565.75;5051535;28;20209;-64
2023/08/05 08:07:04;;;;;;;4.13;3.80;;;;;;;18.97;96.36;96567.41;5052881;28;20203;-65
2023/08/05 08:09:30;;;;;;;4.20;3.80;;;;;;;19.15;97.03;96570.41;5052527;28;20230;-63
2023/08/05 08:11:57;;;;;;;3.88;3.58;;;;;;;19.02;93.62;96565.00;5052183;28;21440;-63
2023/08/05 08:14:23;;;;;;;3.63;3.42;;;;;;;18.75;93.53;96569.34;5052427;28;20214;-65
2023/08/05 08:16:50;;;;;;;4.15;3.83;;;;;;;18.61;97.78;96564.91;5052359;28;20211;-63
2023/08/05 08:19:18;;;;;;;4.80;3.67;;;;;;;18.45;99.01;96567.84;5051972;28;20207;-63
2023/08/05 08:21:45;;;;;;;3.92;3.55;;;;;;;18.42;100.00;96563.69;5052175;28;20203;-64
2023/08/05 08:24:12;;;;;;;3.70;3.40;;;;;;;18.34;100.00;96571.06;5052517;28;20207;-64
2023/08/05 08:26:38;;;;;;;4.20;3.90;;;;;;;18.17;100.00;96569.66;5052056;28;20242;-64
2023/08/05 08:29:04;;;;;;;3.90;3.60;;;;;;;18.00;100.00;96568.25;5052068;28;20203;-62
2023/08/05 08:31:33;;;;;;;3.72;3.35;;;;;;;17.96;100.00;96572.34;5051960;28;20652;-64
2023/08/05 08:34:00;;;;;;;4.97;3.80;;;;;;;17.76;100.00;96566.75;5052096;28;20302;-65
2023/08/05 08:36:28;;;;;;;4.00;3.65;;;;;;;17.84;100.00;96572.84;5052324;28;20211;-63
2023/08/05 08:38:54;;;;;;;3.80;3.50;;;;;;;18.19;100.00;96572.97;5051555;28;20207;-64
2023/08/05 08:41:21;;;;;;;3.72;3.42;;;;;;;18.10;100.00;96569.59;5052098;28;20223;-64
2023/08/05 08:43:48;;;;;;;3.75;3.45;;;;;;;18.44;100.00;96571.53;5052655;28;20203;-64
2023/08/05 08:46:15;;;;;;;3.42;3.20;;;;;;;18.98;100.00;96563.72;5052531;28;20639;-63
2023/08/05 08:48:43;;;;;;;4.15;3.33;;;;;;;19.40;95.16;96557.34;5053673;28;20607;-63
2023/08/05 08:51:10;;;;;;;3.72;3.40;;;;;;;19.83;88.93;96550.72;5053170;28;20294;-62
2023/08/05 08:53:38;;;;;;;3.58;3.33;;;;;;;20.31;90.94;96540.69;5052649;28;20203;-63
2023/08/05 08:56:05;;;;;;;3.47;3.17;;;;;;;20.79;87.74;96533.22;5052836;28;20203;-62
2023/08/05 08:58:31;;;;;;;4.10;3.70;;;;;;;21.20;85.41;96532.09;5052367;28;20207;-62
2023/08/05 09:00:58;;;;;;;3.80;3.50;;;;;;;21.39;78.24;96528.53;5052196;28;20234;-62
2023/08/05 09:03:25;;;;;;;3.63;3.10;;;;;;;21.37;81.30;96527.06;5053218;28;20207;-62
2023/08/05 09:05:55;;;;;;;3.55;3.25;;;;;;;21.45;75.32;96526.84;5053860;28;20260;-63
2023/08/05 09:08:22;;;;;;;3.83;3.53;;;;;;;21.10;78.36;96534.38;5053345;28;20214;-64
2023/08/05 09:10:50;;;;;;;3.97;3.67;;;;;;;20.79;78.48;96533.22;5052049;28;20539;-62
2023/08/05 09:13:17;;;;;;;3.67;3.13;;;;;;;20.57;79.46;96531.78;5051837;28;20203;-62
2023/08/05 09:15:44;;;;;;;3.42;3.13;;;;;;;20.44;85.52;96539.84;5051562;28;20322;-63
2023/08/05 09:18:11;;;;;;;3.60;3.17;;;;;;;20.05;82.79;96537.13;5052820;28;20265;-66
2023/08/05 09:20:38;;;;;;;3.75;3.45;;;;;;;19.56;86.23;96535.53;5051135;28;20227;-63
2023/08/05 09:23:06;;;;;;;4.13;3.33;;;;;;;19.20;88.13;96522.38;5051326;28;20215;-63
2023/08/05 09:25:34;;;;;;;3.35;3.15;;;;;;;19.07;91.22;96511.59;5050488;28;20687;-62
2023/08/05 09:28:02;;;;;;;3.72;3.42;;;;;;;18.98;90.76;96506.63;5050816;28;20203;-62
2023/08/05 09:30:28;;;;;;;3.30;3.00;;;;;;;18.77;94.02;96519.09;5050733;28;20191;-62
2023/08/05 09:32:55;;;;;;;4.03;3.63;;;;;;;18.83;97.00;96504.88;5051288;28;20222;-62
2023/08/05 09:35:22;;;;;;;3.78;3.40;;;;;;;18.79;97.58;96508.16;5051245;28;20211;-63
2023/08/05 09:37:49;;;;;;;4.20;3.80;;;;;;;18.75;100.00;96514.94;5050791;28;20280;-64
2023/08/05 09:40:17;;;;;;;4.63;3.92;;;;;;;18.78;100.00;96509.16;5051130;28;20251;-61
2023/08/05 09:42:47;;;;;;;3.42;3.13;;;;;;;18.75;99.15;96510.41;5050884;28;20222;-62
2023/08/05 09:45:16;;;;;;;3.53;3.22;;;;;;;18.73;100.00;96509.78;5050792;28;20232;-63
2023/08/05 09:47:43;;;;;;;3.97;3.67;;;;;;;18.71;100.00;96498.41;5050873;28;20303;-61
2023/08/05 09:50:13;;;;;;;4.75;3.80;;;;;;;19.09;100.00;96495.34;5050892;28;20195;-62
2023/08/05 09:52:40;;;;;;;3.90;3.60;;;;;;;19.69;99.07;96502.56;5050208;28;20739;-62
2023/08/05 09:55:11;;;;;;;3.65;3.45;;;;;;;20.20;95.92;96500.97;5050802;28;20289;-62
2023/08/05 09:57:38;;;;;;;3.67;3.38;;;;;;;20.72;93.72;96492.09;5050603;28;20298;-63
2023/08/05 10:00:08;;;;;;;4.82;4.43;;;;;;;21.26;90.76;96486.34;5050878;28;20238;-62
2023/08/05 10:02:36;;;;;;;3.90;3.60;;;;;;;21.73;85.40;96487.78;5050808;28;20215;-62
2023/08/05 10:05:03;;;;;;;3.70;3.38;;;;;;;22.10;81.68;96487.97;5050943;28;20202;-62
2023/08/05 10:07:29;;;;;;;3.05;2.85;;;;;;;22.29;77.47;96486.97;5050318;28;20652;-61
2023/08/05 10:09:56;;;;;;;3.03;2.80;;;;;;;22.63;79.08;96483.78;5050896;28;20238;-62
2023/08/05 10:12:25;;;;;;;3.35;2.80;;;;;;;22.99;78.15;96479.50;5049959;28;20192;-61
2023/08/05 10:14:52;;;;;;;3.83;3.45;;;;;;;23.20;74.58;96473.66;5050604;28;20202;-62
2023/08/05 10:17:19;;;;;;;3.35;3.15;;;;;;;23.18;71.97;96476.56;5050305;28;20207;-63
2023/08/05 10:19:48;;;;;;;4.45;3.40;;;;;;;23.24;71.13;96466.75;5050395;28;20221;-63
2023/08/05 10:22:21;;;;;;;3.45;3.25;;;;;;;23.45;75.38;96469.03;5050278;28;20285;-62
2023/08/05 10:24:52;;;;;;;3.35;3.15;;;;;;;23.67;72.81;96464.75;5050497;28;20210;-62
2023/08/05 10:27:33;;;;;;;3.75;3.45;;;;;;;23.60;71.71;96468.59;5049911;28;20238;-63
2023/08/05 10:30:05;;;;;;;3.83;3.53;;;;;;;23.24;70.72;96458.66;5050923;28;20272;-63
2023/08/05 10:32:33;;;;;;;5.05;4.65;;;;;;;22.75;71.38;96468.53;5050798;28;20187;-62
2023/08/05 10:35:29;;;;;;;4.10;3.80;;;;;;;22.68;74.54;96464.25;5050334;28;20199;-63
2023/08/05 10:38:07;;;;;;;3.60;3.40;;;;;;;22.34;75.92;96462.91;5049581;28;20268;-62
2023/08/05 10:40:41;;;;;;;3.53;3.22;;;;;;;22.09;76.62;96459.38;5050226;28;20274;-62
2023/08/05 10:43:09;;;;;;;3.25;3.03;;;;;;;21.77;76.46;96456.69;5049302;28;20211;-62
2023/08/05 10:45:35;;;;;;;4.05;3.75;;;;;;;21.45;75.86;96446.94;5049963;28;20284;-62
2023/08/05 10:48:07;;;;;;;3.13;2.83;;;;;;;21.27;80.50;96452.22;5050096;28;20277;-62
2023/08/05 10:50:41;;;;;;;3.67;3.38;;;;;;;21.03;78.59;96447.53;5050254;28;20228;-62
2023/08/05 10:53:09;;;;;;;4.35;3.95;;;;;;;20.84;80.67;96450.09;5051433;28;20203;-63
2023/08/05 10:55:48;;;;;;;3.85;3.50;;;;;;;20.62;82.01;96446.00;5050252;28;20239;-62
2023/08/05 10:58:15;;;;;;;3.78;3.47;;;;;;;20.48;82.28;96452.44;5050040;28;20199;-63
2023/08/05 11:00:42;;;;;;;4.00;3.28;;;;;;;20.37;85.18;96442.31;5050151;28;20223;-62
2023/08/05 11:03:31;;;;;;;4.05;3.67;;;;;;;20.10;83.09;96433.44;5054026;28;20290;-62
2023/08/05 11:06:02;;;;;;;3.20;3.00;;;;;;;20.11;83.95;96436.97;5054054;28;20299;-61
2023/08/05 11:08:31;;;;;;;3.20;3.00;;;;;;;20.05;87.70;96427.06;5054614;28;20210;-60
2023/08/05 11:11:01;;;;;;;3.90;3.60;;;;;;;19.93;84.41;96428.69;5054244;28;20199;-61
2023/08/05 11:13:27;;;;;;;3.25;3.05;;;;;;;19.88;85.31;96416.72;5054065;28;20261;-62
2023/08/05 11:16:03;;;;;;;3.67;3.40;;;;;;;19.95;86.07;96422.09;5054188;28;20210;-60
2023/08/05 11:18:31;;;;;;;3.45;3.25;;;;;;;19.94;88.44;96411.56;5054370;28;20203;-63
2023/08/05 11:20:58;;;;;;;3.67;3.40;;;;;;;19.81;88.02;96398.97;5054252;28;20246;-62
2023/08/05 11:23:26;;;;;;;3.70;3.40;;;;;;;19.85;88.83;96401.03;5052936;28;20211;-61
2023/08/05 11:25:53;;;;;;;3.78;3.47;;;;;;;19.86;87.81;96405.38;5053658;28;20230;-62
2023/08/05 11:28:20;;;;;;;3.45;3.22;;;;;;;19.91;87.76;96406.63;5054064;28;20214;-62